sensor_id;sensor_type;location;lat;lon;timestamp;pressure;altitude;pressure_sealevel;temperature;humidity
31011;BME280;26395;53.412;19.598;2022-10-16T00:10:33;100276.55;;;15.52;100.00
31011;BME280;26395;53.412;19.598;2022-10-16T00:25:36;100260.09;;;15.53;100.00
31011;BME280;26395;53.412;19.598;2022-10-16T00:40:39;100268.31;;;15.57;100.00
31011;BME280;26395;53.412;19.598;2022-10-16T00:55:42;100281.50;;;15.59;100.00
31011;BME280;26395;53.412;19.598;2022-10-16T01:10:57;100290.27;;;15.58;100.00
31011;BME280;26395;53.412;19.598;2022-10-16T01:41:41;100299.71;;;15.53;100.00
31011;BME280;26395;53.412;19.598;2022-10-16T01:56:48;100290.00;;;15.47;100.00
31011;BME280;26395;53.412;19.598;2022-10-16T02:11:55;100287.77;;;15.38;100.00
31011;BME280;26395;53.412;19.598;2022-10-16T02:27:19;100295.56;;;15.23;100.00
31011;BME280;26395;53.412;19.598;2022-10-16T02:42:37;100309.92;;;15.05;100.00
31011;BME280;26395;53.412;19.598;2022-10-16T02:57:40;100313.27;;;14.87;100.00
31011;BME280;26395;53.412;19.598;2022-10-16T03:12:43;100305.20;;;14.73;100.00
31011;BME280;26395;53.412;19.598;2022-10-16T03:27:46;100303.43;;;14.61;100.00
31011;BME280;26395;53.412;19.598;2022-10-16T03:42:49;100310.95;;;14.48;100.00
31011;BME280;26395;53.412;19.598;2022-10-16T03:57:52;100325.83;;;14.41;100.00
31011;BME280;26395;53.412;19.598;2022-10-16T04:12:55;100337.36;;;14.39;100.00
31011;BME280;26395;53.412;19.598;2022-10-16T04:27:58;100350.09;;;14.54;100.00
31011;BME280;26395;53.412;19.598;2022-10-16T04:43:05;100351.88;;;14.56;100.00
31011;BME280;26395;53.412;19.598;2022-10-16T04:58:09;100345.21;;;14.56;100.00
31011;BME280;26395;53.412;19.598;2022-10-16T05:13:12;100352.55;;;14.58;100.00
31011;BME280;26395;53.412;19.598;2022-10-16T05:28:15;100368.01;;;14.67;100.00
31011;BME280;26395;53.412;19.598;2022-10-16T05:43:19;100362.79;;;14.72;100.00
31011;BME280;26395;53.412;19.598;2022-10-16T05:58:23;100366.60;;;14.80;100.00
31011;BME280;26395;53.412;19.598;2022-10-16T06:13:26;100396.16;;;15.01;100.00
31011;BME280;26395;53.412;19.598;2022-10-16T06:28:29;100424.52;;;15.20;100.00
31011;BME280;26395;53.412;19.598;2022-10-16T06:43:33;100429.14;;;15.33;100.00
31011;BME280;26395;53.412;19.598;2022-10-16T06:58:40;100423.47;;;15.49;100.00
31011;BME280;26395;53.412;19.598;2022-10-16T07:13:44;100441.09;;;15.61;100.00
31011;BME280;26395;53.412;19.598;2022-10-16T07:28:54;100450.58;;;15.75;100.00
31011;BME280;26395;53.412;19.598;2022-10-16T07:43:58;100452.48;;;16.06;100.00
31011;BME280;26395;53.412;19.598;2022-10-16T07:59:03;100469.21;;;16.18;100.00
31011;BME280;26395;53.412;19.598;2022-10-16T08:14:06;100473.84;;;16.53;100.00
31011;BME280;26395;53.412;19.598;2022-10-16T08:29:09;100491.61;;;16.80;100.00
31011;BME280;26395;53.412;19.598;2022-10-16T08:44:30;100493.46;;;17.24;100.00
31011;BME280;26395;53.412;19.598;2022-10-16T08:59:40;100494.42;;;17.59;100.00
31011;BME280;26395;53.412;19.598;2022-10-16T09:29:58;100515.33;;;18.31;100.00
31011;BME280;26395;53.412;19.598;2022-10-16T09:45:03;100525.20;;;18.93;100.00
31011;BME280;26395;53.412;19.598;2022-10-16T10:00:11;100519.02;;;20.08;100.00
31011;BME280;26395;53.412;19.598;2022-10-16T10:15:15;100522.63;;;19.95;100.00
31011;BME280;26395;53.412;19.598;2022-10-16T10:45:43;100524.02;;;20.82;100.00
31011;BME280;26395;53.412;19.598;2022-10-16T11:01:09;100524.48;;;20.74;100.00
31011;BME280;26395;53.412;19.598;2022-10-16T11:16:20;100516.42;;;20.60;100.00
31011;BME280;26395;53.412;19.598;2022-10-16T11:31:39;100516.63;;;20.41;100.00
31011;BME280;26395;53.412;19.598;2022-10-16T11:46:57;100518.93;;;20.42;100.00
31011;BME280;26395;53.412;19.598;2022-10-16T12:18:23;100540.05;;;21.21;100.00
31011;BME280;26395;53.412;19.598;2022-10-16T13:04:27;100539.74;;;20.64;100.00
31011;BME280;26395;53.412;19.598;2022-10-16T13:20:11;100543.55;;;20.85;100.00
31011;BME280;26395;53.412;19.598;2022-10-16T13:35:26;100574.70;;;20.50;100.00
31011;BME280;26395;53.412;19.598;2022-10-16T13:50:30;100585.00;;;20.32;100.00
31011;BME280;26395;53.412;19.598;2022-10-16T14:05:34;100600.76;;;20.11;100.00
31011;BME280;26395;53.412;19.598;2022-10-16T14:20:38;100608.68;;;20.08;100.00
31011;BME280;26395;53.412;19.598;2022-10-16T14:35:43;100622.09;;;20.14;100.00
31011;BME280;26395;53.412;19.598;2022-10-16T14:50:47;100642.31;;;20.35;100.00
31011;BME280;26395;53.412;19.598;2022-10-16T15:05:50;100644.45;;;20.76;100.00
31011;BME280;26395;53.412;19.598;2022-10-16T15:20:54;100659.01;;;20.35;100.00
31011;BME280;26395;53.412;19.598;2022-10-16T15:35:58;100654.44;;;21.05;100.00
31011;BME280;26395;53.412;19.598;2022-10-16T15:51:06;100669.31;;;20.02;100.00
31011;BME280;26395;53.412;19.598;2022-10-16T16:06:13;100674.98;;;19.50;100.00
31011;BME280;26395;53.412;19.598;2022-10-16T16:21:16;100699.77;;;19.12;100.00
31011;BME280;26395;53.412;19.598;2022-10-16T16:36:20;100717.61;;;18.80;100.00
31011;BME280;26395;53.412;19.598;2022-10-16T16:51:26;100733.69;;;18.56;100.00
31011;BME280;26395;53.412;19.598;2022-10-16T17:06:29;100743.26;;;18.40;100.00
31011;BME280;26395;53.412;19.598;2022-10-16T17:21:34;100753.40;;;18.25;100.00
31011;BME280;26395;53.412;19.598;2022-10-16T17:36:38;100765.42;;;18.10;100.00
31011;BME280;26395;53.412;19.598;2022-10-16T17:51:52;100787.75;;;17.90;100.00
31011;BME280;26395;53.412;19.598;2022-10-16T18:06:57;100806.85;;;17.58;100.00
31011;BME280;26395;53.412;19.598;2022-10-16T18:22:02;100835.31;;;17.40;100.00
31011;BME280;26395;53.412;19.598;2022-10-16T18:37:06;100847.18;;;17.28;100.00
31011;BME280;26395;53.412;19.598;2022-10-16T18:52:09;100872.13;;;17.13;100.00
31011;BME280;26395;53.412;19.598;2022-10-16T19:07:13;100885.55;;;16.89;100.00
31011;BME280;26395;53.412;19.598;2022-10-16T19:22:19;100905.45;;;16.64;100.00
31011;BME280;26395;53.412;19.598;2022-10-16T19:37:53;100926.80;;;16.49;100.00
31011;BME280;26395;53.412;19.598;2022-10-16T19:52:57;100939.48;;;16.37;100.00
31011;BME280;26395;53.412;19.598;2022-10-16T20:08:00;100959.70;;;16.27;100.00
31011;BME280;26395;53.412;19.598;2022-10-16T20:23:03;100981.06;;;16.20;100.00
31011;BME280;26395;53.412;19.598;2022-10-16T20:38:08;100990.23;;;16.04;100.00
31011;BME280;26395;53.412;19.598;2022-10-16T20:53:12;100996.83;;;15.95;100.00
31011;BME280;26395;53.412;19.598;2022-10-16T21:08:15;101008.02;;;15.80;100.00
31011;BME280;26395;53.412;19.598;2022-10-16T21:23:18;101030.95;;;15.48;100.00
31011;BME280;26395;53.412;19.598;2022-10-16T21:38:21;101050.85;;;15.15;100.00
31011;BME280;26395;53.412;19.598;2022-10-16T21:53:25;101077.55;;;14.90;100.00
31011;BME280;26395;53.412;19.598;2022-10-16T22:08:28;101099.83;;;14.75;100.00
31011;BME280;26395;53.412;19.598;2022-10-16T22:23:32;101105.77;;;14.53;100.00
31011;BME280;26395;53.412;19.598;2022-10-16T22:38:35;101116.65;;;14.24;100.00
31011;BME280;26395;53.412;19.598;2022-10-16T22:53:39;101137.39;;;13.79;100.00
31011;BME280;26395;53.412;19.598;2022-10-16T23:08:43;101160.76;;;13.56;100.00
31011;BME280;26395;53.412;19.598;2022-10-16T23:23:46;101173.83;;;13.45;100.00
31011;BME280;26395;53.412;19.598;2022-10-16T23:38:50;101166.10;;;13.18;100.00
31011;BME280;26395;53.412;19.598;2022-10-16T23:53:53;101176.98;;;12.72;100.00
